Home   Weather   China   Shenyang   Past weeks
Flag for China

Past Weather in Shenyang, Liaoning, China — Yesterday and Last 2 Weeks

Currently: 68 °F. Passing clouds. (Weather station: Shenyang / Taoxian, China). See more current weather

Past Weather in Shenyang — Graph

°F

Shenyang Temperature Yesterday

Maximum temperature yesterday: 66 °F (at 12:00 am)
Minimum temperature yesterday: 54 °F (at 11:30 pm)
Average temperature yesterday: 59 °F

High & Low Weather Summary for the Past Weeks

 TemperatureHumidityPressure
High81 °F (May 11, 2:30 pm)100% (May 2, 4:00 am)30.09 "Hg (May 2, 4:00 am)
Low36 °F (May 2, 4:00 am)13% (May 5, 2:30 pm)29.33 "Hg (May 8, 1:30 am)
Average60 °F57%29.76 "Hg
* Reported May 1 2:00 pm — May 16 2:00 pm, Shenyang. Weather by CustomWeather, © 2021

Note: Actual official high and low records may vary slightly from our data, if they occured in-between our weather recording intervals... More about our weather records

Shenyang Weather History for the Previous 24 Hours

Scroll right to see more
 ConditionsComfort  
Time TempWeatherWind HumidityBarometerVisibility
2:00 pm
Sun, May 16
70 °FPassing clouds.10 mph40%29.74 "HgN/A
1:30 pm70 °FPassing clouds.10 mph43%29.74 "HgN/A
1:00 pm68 °FPassing clouds.10 mph43%29.74 "HgN/A
12:30 pm72 °FPassing clouds.13 mph38%29.74 "HgN/A
12:00 pm70 °FPassing clouds.15 mph40%29.74 "HgN/A
11:30 am68 °FSunny.13 mph43%29.77 "Hg10 mi
11:00 am68 °FSunny.13 mph46%29.77 "Hg10 mi
10:30 am64 °FSunny.10 mph49%29.77 "Hg10 mi
10:00 am64 °FSunny.13 mph49%29.77 "Hg10 mi
9:30 am64 °FSunny.13 mph52%29.77 "Hg10 mi
9:00 am61 °FSunny.10 mph55%29.80 "Hg10 mi
8:30 am61 °FSunny.13 mph55%29.77 "Hg10 mi
8:00 am61 °FSunny.10 mph59%29.77 "Hg10 mi
7:30 am59 °FSunny.10 mph59%29.80 "Hg10 mi
7:00 am59 °FSunny.10 mph59%29.80 "Hg10 mi
6:30 am57 °FPassing clouds.10 mph63%29.77 "HgN/A
6:00 am55 °FSunny.8 mph67%29.77 "Hg10 mi
5:30 am55 °FScattered clouds.6 mph67%29.77 "HgN/A
5:00 am55 °FPassing clouds.6 mph67%29.80 "HgN/A
4:30 am54 °FSunny.6 mph72%29.77 "Hg10 mi
4:00 am54 °FClear.6 mph77%29.77 "Hg10 mi
3:30 am54 °FClear.8 mph77%29.77 "Hg10 mi
3:00 am54 °FClear.6 mph82%29.77 "Hg10 mi
2:30 am54 °FClear.6 mph82%29.80 "Hg10 mi
2:00 am54 °FClear.6 mph77%29.80 "Hg10 mi
1:30 am54 °FClear.6 mph82%29.80 "Hg10 mi
1:00 am54 °FClear.3 mph77%29.83 "Hg10 mi
12:30 am54 °FClear.6 mph77%29.83 "Hg10 mi
12:00 am54 °FClear.6 mph77%29.83 "Hg10 mi
11:30 pm
Sat, May 15
54 °FClear.3 mph77%29.83 "Hg10 mi
11:00 pm55 °FClear.3 mph72%29.86 "Hg10 mi
10:30 pm55 °FPassing clouds.8 mph67%29.86 "HgN/A
10:00 pm57 °FClear.6 mph63%29.86 "Hg10 mi
9:30 pm55 °FClear.6 mph67%29.86 "Hg10 mi
8:30 pm57 °FPassing clouds.6 mph63%29.86 "HgN/A
8:00 pm57 °FPassing clouds.8 mph59%29.86 "HgN/A
7:30 pm57 °FPassing clouds.8 mph63%29.83 "HgN/A
7:00 pm57 °FPassing clouds.8 mph63%29.83 "HgN/A
6:30 pm57 °FSunny.6 mph67%29.83 "Hg10 mi
6:00 pm57 °FPassing clouds.6 mph67%29.83 "HgN/A
5:30 pm59 °FSunny.6 mph63%29.83 "Hg10 mi
5:00 pm59 °FSunny.6 mph72%29.83 "Hg10 mi
4:30 pm59 °FSunny.8 mph72%29.83 "Hg10 mi
4:00 pm59 °FSunny.8 mph72%29.83 "Hg10 mi
3:30 pm59 °FSunny.8 mph72%29.86 "Hg10 mi
3:00 pm59 °FPassing clouds.8 mph77%29.86 "HgN/A
Weather by CustomWeather, © 2021

See weather overview